Time;durP1;ratioP1;P1;durP2;ratioP2;P2;SDS_P1;SDS_P2;PMS_P1;PMS_P2;Temp;Humidity;BMP_temperature;BMP_pressure;BME280_temperature;BME280_humidity;BME280_pressure;Samples;Min_cycle;Max_cycle;Signal;HPM_P1;HPM_P2
2024/04/12 00:01:02;;;;;;;17.50;11.27;;;14.60;99.90;;;;;;5373719;26;20007;-81
2024/04/12 00:03:29;;;;;;;12.27;8.98;;;14.60;99.90;;;;;;5373142;26;20001;-81
2024/04/12 00:05:57;;;;;;;13.25;9.68;;;14.60;99.90;;;;;;5373639;26;19992;-81
2024/04/12 00:08:24;;;;;;;12.75;8.65;;;14.60;99.90;;;;;;5373144;26;19996;-81
2024/04/12 00:10:51;;;;;;;13.68;8.50;;;14.60;99.90;;;;;;5373664;26;19992;-81
2024/04/12 00:13:17;;;;;;;15.10;9.35;;;14.60;99.90;;;;;;5373573;26;20004;-81
2024/04/12 00:15:43;;;;;;;16.15;11.10;;;14.60;99.90;;;;;;5373334;26;20007;-81
2024/04/12 00:18:11;;;;;;;13.10;8.60;;;14.60;99.90;;;;;;5373556;26;20328;-81
2024/04/12 00:20:37;;;;;;;16.50;10.52;;;14.60;99.90;;;;;;5373222;26;20444;-81
2024/04/12 00:23:03;;;;;;;15.48;9.63;;;14.60;99.90;;;;;;5373991;26;20015;-81
2024/04/12 00:25:29;;;;;;;14.15;9.93;;;14.60;99.90;;;;;;5373611;26;19997;-82
2024/04/12 00:27:55;;;;;;;13.93;9.05;;;14.60;99.90;;;;;;5373382;26;20069;-82
2024/04/12 00:30:41;;;;;;;12.70;9.20;;;14.60;99.90;;;;;;5373182;26;19996;-81
2024/04/12 00:33:10;;;;;;;14.00;9.35;;;14.60;99.90;;;;;;5371091;26;19998;-83
2024/04/12 00:35:46;;;;;;;18.60;10.25;;;14.50;99.90;;;;;;5373638;26;20086;-82
2024/04/12 00:38:11;;;;;;;15.40;11.40;;;14.60;99.90;;;;;;5373536;26;20472;-82
2024/04/12 00:40:45;;;;;;;16.45;10.52;;;14.60;99.90;;;;;;5400933;26;20004;-81
2024/04/12 00:43:15;;;;;;;14.15;9.85;;;14.60;99.90;;;;;;5372489;26;20032;-81
2024/04/12 00:45:52;;;;;;;13.75;10.25;;;14.60;99.90;;;;;;5372947;26;20369;-81
2024/04/12 00:48:21;;;;;;;11.25;8.23;;;14.60;99.90;;;;;;5374139;26;20008;-81
2024/04/12 00:50:50;;;;;;;15.23;11.15;;;14.50;99.90;;;;;;5373190;26;20004;-81
2024/04/12 00:53:22;;;;;;;19.42;12.75;;;14.60;99.90;;;;;;5400576;26;20011;-80
2024/04/12 00:56:03;;;;;;;18.13;11.57;;;14.50;99.90;;;;;;5372732;26;20004;-81
2024/04/12 00:58:37;;;;;;;17.67;11.70;;;14.50;99.90;;;;;;5373444;26;20452;-82
2024/04/12 01:01:16;;;;;;;17.98;12.27;;;14.60;99.90;;;;;;5371133;26;20064;-82
2024/04/12 01:03:46;;;;;;;18.50;13.82;;;14.50;99.90;;;;;;5373122;26;19992;-82
2024/04/12 01:06:29;;;;;;;18.05;12.82;;;14.50;99.90;;;;;;5400054;26;20128;-82
2024/04/12 01:09:10;;;;;;;17.48;12.70;;;14.50;99.90;;;;;;5371009;26;20024;-81
2024/04/12 01:11:37;;;;;;;21.05;13.63;;;14.50;99.90;;;;;;5372472;26;20000;-82
2024/04/12 01:14:05;;;;;;;17.70;12.63;;;14.50;99.90;;;;;;5370644;26;20011;-81
2024/04/12 01:16:31;;;;;;;17.48;12.57;;;14.50;99.90;;;;;;5400348;26;19993;-81
2024/04/12 01:18:57;;;;;;;18.85;13.65;;;14.50;99.90;;;;;;5372775;26;20011;-82
2024/04/12 01:21:24;;;;;;;19.38;14.15;;;14.50;99.90;;;;;;5372532;26;20440;-82
2024/04/12 01:23:53;;;;;;;22.40;14.45;;;14.50;99.90;;;;;;5372022;26;20043;-81
2024/04/12 01:26:21;;;;;;;19.42;14.05;;;14.50;99.90;;;;;;5370797;26;20378;-82
2024/04/12 01:28:48;;;;;;;20.75;14.57;;;14.50;99.90;;;;;;5372518;26;20448;-82
2024/04/12 01:31:15;;;;;;;17.92;13.00;;;14.50;99.90;;;;;;5370471;26;20012;-82
2024/04/12 01:33:49;;;;;;;22.17;15.65;;;14.50;99.90;;;;;;5372303;26;20024;-81
2024/04/12 01:36:18;;;;;;;;;;;14.50;99.90;;;;;;5372953;26;20003;-82
2024/04/12 01:38:53;;;;;;;21.63;15.52;;;14.50;99.90;;;;;;5372612;26;19995;-80
2024/04/12 01:41:31;;;;;;;23.70;16.67;;;14.50;99.90;;;;;;5372712;26;20003;-82
2024/04/12 01:44:04;;;;;;;21.52;15.30;;;14.50;99.90;;;;;;5373663;26;20004;-81
2024/04/12 01:46:31;;;;;;;20.95;15.65;;;14.50;99.90;;;;;;5372905;26;19993;-83
2024/04/12 01:49:00;;;;;;;21.30;16.23;;;14.50;99.90;;;;;;5372154;26;20407;-81
2024/04/12 01:51:26;;;;;;;22.08;16.50;;;14.50;99.90;;;;;;5370566;26;19992;-81
2024/04/12 01:53:57;;;;;;;21.13;15.60;;;14.40;99.90;;;;;;5370682;26;20042;-81
2024/04/12 01:56:24;;;;;;;20.85;15.85;;;14.40;99.90;;;;;;5372057;26;20007;-81
2024/04/12 01:58:51;;;;;;;21.83;15.93;;;14.40;99.90;;;;;;5371694;26;20444;-82
2024/04/12 02:01:18;;;;;;;24.73;16.20;;;14.40;99.90;;;;;;5371514;26;20005;-81
2024/04/12 02:03:44;;;;;;;22.50;16.52;;;14.40;99.90;;;;;;5372229;26;20020;-81
2024/04/12 02:06:09;;;;;;;21.00;15.73;;;14.40;99.90;;;;;;5372074;26;19992;-82
2024/04/12 02:08:35;;;;;;;25.13;17.13;;;14.40;99.90;;;;;;5369693;26;20015;-81
2024/04/12 02:11:09;;;;;;;23.83;18.02;;;14.40;99.90;;;;;;5399389;26;20324;-82
2024/04/12 02:13:36;;;;;;;;;;;14.40;99.90;;;;;;5372579;26;19992;-81
2024/04/12 02:16:04;;;;;;;24.70;18.23;;;14.50;99.90;;;;;;5371611;26;19933;-80
2024/04/12 02:18:34;;;;;;;24.58;17.98;;;14.40;99.90;;;;;;5371590;26;20002;-83
2024/04/12 02:21:06;;;;;;;24.20;18.08;;;14.40;99.90;;;;;;5372586;26;20115;-84
2024/04/12 02:23:37;;;;;;;23.75;17.40;;;14.40;99.90;;;;;;5375478;26;20402;-82
2024/04/12 02:26:08;;;;;;;26.85;18.48;;;14.40;99.90;;;;;;5373641;26;20024;-82
2024/04/12 02:28:36;;;;;;;27.83;19.50;;;14.40;99.90;;;;;;5375663;26;20077;-83
2024/04/12 02:31:08;;;;;;;22.35;16.23;;;14.40;99.90;;;;;;5373065;26;19996;-82
2024/04/12 02:33:34;;;;;;;23.73;17.63;;;14.30;99.90;;;;;;5374945;26;20065;-80
2024/04/12 02:36:11;;;;;;;21.77;16.25;;;14.30;99.90;;;;;;5374228;26;20432;-81
2024/04/12 02:38:41;;;;;;;20.58;14.48;;;14.30;99.90;;;;;;5376744;26;20444;-82
2024/04/12 02:41:13;;;;;;;21.42;16.02;;;14.30;99.90;;;;;;5375155;26;20006;-81
2024/04/12 02:43:44;;;;;;;19.98;14.30;;;14.30;99.90;;;;;;5374574;26;20054;-82
2024/04/12 02:46:10;;;;;;;19.98;13.52;;;14.30;99.90;;;;;;5375086;26;20064;-81
2024/04/12 02:48:40;;;;;;;18.60;12.75;;;14.30;99.90;;;;;;5372492;26;20218;-82
2024/04/12 02:51:06;;;;;;;17.35;12.73;;;14.30;99.90;;;;;;5374712;26;20003;-82
2024/04/12 02:53:36;;;;;;;19.10;14.25;;;14.30;99.90;;;;;;5375252;26;20005;-82
2024/04/12 02:56:11;;;;;;;19.58;13.88;;;14.30;99.90;;;;;;5374702;26;20394;-78
2024/04/12 02:58:44;;;;;;;19.63;13.93;;;14.30;99.90;;;;;;5374497;26;19992;-83
2024/04/12 03:01:17;;;;;;;17.40;12.88;;;14.30;99.90;;;;;;5374692;26;19997;-82
2024/04/12 03:03:48;;;;;;;16.73;12.57;;;14.30;99.90;;;;;;5374643;26;19996;-82
2024/04/12 03:06:24;;;;;;;21.02;13.38;;;14.30;99.90;;;;;;5375659;26;19996;-81
2024/04/12 03:08:52;;;;;;;18.85;13.68;;;14.20;99.90;;;;;;5375043;26;20008;-81
2024/04/12 03:11:22;;;;;;;18.48;13.40;;;14.30;99.90;;;;;;5372663;26;20348;-83
2024/04/12 03:13:51;;;;;;;16.30;12.13;;;14.30;99.90;;;;;;5402164;26;20439;-82
2024/04/12 03:16:18;;;;;;;18.25;12.82;;;14.30;99.90;;;;;;5372496;26;20004;-82
2024/04/12 03:18:45;;;;;;;17.65;12.48;;;14.30;99.90;;;;;;5374485;26;19996;-82
2024/04/12 03:21:15;;;;;;;15.70;11.70;;;14.30;99.90;;;;;;5373999;26;20448;-84
2024/04/12 03:23:46;;;;;;;17.35;12.38;;;14.30;99.90;;;;;;5374071;26;20400;-81
2024/04/12 03:26:13;;;;;;;17.27;12.85;;;14.30;99.90;;;;;;5372834;26;20033;-82
2024/04/12 03:28:39;;;;;;;18.10;12.93;;;14.30;99.90;;;;;;5372815;26;20332;-82
2024/04/12 03:31:07;;;;;;;17.52;12.60;;;14.30;99.90;;;;;;5372447;26;20004;-81
2024/04/12 03:33:42;;;;;;;16.02;12.00;;;14.30;99.90;;;;;;5372581;26;19993;-82
2024/04/12 03:41:50;;;;;;;14.18;10.07;;;14.30;99.90;;;;;;5375896;26;19996;-82
2024/04/12 03:44:18;;;;;;;13.07;9.65;;;14.30;99.90;;;;;;5374857;26;19992;-82
2024/04/12 03:46:51;;;;;;;14.20;10.40;;;14.30;99.90;;;;;;5373407;26;20036;-83
2024/04/12 03:49:21;;;;;;;13.73;9.65;;;14.20;99.90;;;;;;5372414;26;20133;-83
2024/04/12 03:51:49;;;;;;;12.70;9.13;;;14.30;99.90;;;;;;5371579;26;20451;-83
2024/04/12 03:54:18;;;;;;;11.60;8.63;;;14.30;99.90;;;;;;5372180;26;20004;-82
2024/04/12 03:56:49;;;;;;;11.88;8.15;;;14.30;99.90;;;;;;5373662;26;20007;-81
2024/04/12 03:59:23;;;;;;;12.15;8.38;;;14.30;99.90;;;;;;5373798;26;20008;-82
2024/04/12 04:01:50;;;;;;;11.88;7.80;;;14.30;99.90;;;;;;5375163;26;20481;-82
2024/04/12 04:04:19;;;;;;;12.55;8.02;;;14.30;99.90;;;;;;5374398;26;19997;-82
2024/04/12 04:06:54;;;;;;;11.80;8.18;;;14.30;99.90;;;;;;5373014;26;19997;-82
2024/04/12 04:09:21;;;;;;;11.55;8.45;;;14.30;99.90;;;;;;5370914;26;20046;-81
2024/04/12 04:11:53;;;;;;;12.18;9.38;;;14.30;99.90;;;;;;5373443;26;19996;-82
2024/04/12 04:14:19;;;;;;;12.00;8.95;;;14.30;99.90;;;;;;5371688;26;20007;-82
2024/04/12 04:16:50;;;;;;;12.68;8.55;;;14.30;99.90;;;;;;5439568;26;20032;-82
2024/04/12 04:19:30;;;;;;;13.85;9.32;;;14.30;99.90;;;;;;5373736;26;20006;-82
2024/04/12 04:24:51;;;;;;;11.77;8.18;;;14.30;99.90;;;;;;5376352;26;20001;-82
2024/04/12 04:27:18;;;;;;;13.43;8.43;;;14.30;99.90;;;;;;5400825;26;20010;-83
2024/04/12 04:29:44;;;;;;;14.07;9.35;;;14.30;99.90;;;;;;5407497;26;20544;-81
2024/04/12 04:32:10;;;;;;;14.82;10.90;;;14.30;99.90;;;;;;5408359;26;20011;-82
2024/04/12 04:34:36;;;;;;;13.63;10.20;;;14.30;99.90;;;;;;5406498;26;20018;-82
2024/04/12 04:37:05;;;;;;;14.00;9.88;;;14.30;99.90;;;;;;5406665;26;20003;-82
2024/04/12 04:39:32;;;;;;;14.55;9.93;;;14.30;99.90;;;;;;5408768;26;20004;-81
2024/04/12 04:41:59;;;;;;;17.20;10.60;;;14.30;99.90;;;;;;5408075;26;20064;-81
2024/04/12 04:44:25;;;;;;;15.90;11.55;;;14.30;99.90;;;;;;5406912;26;20028;-82
2024/04/12 04:46:53;;;;;;;14.43;9.77;;;14.30;99.90;;;;;;5406153;26;20404;-82
2024/04/12 04:49:23;;;;;;;14.40;9.20;;;14.30;99.90;;;;;;5406481;26;19992;-82
2024/04/12 04:51:50;;;;;;;13.50;9.15;;;14.30;99.90;;;;;;5407701;26;20068;-81
2024/04/12 04:54:19;;;;;;;11.70;8.23;;;14.30;99.90;;;;;;5408382;26;19999;-82
2024/04/12 04:56:46;;;;;;;12.95;9.05;;;14.30;99.90;;;;;;5406214;26;19995;-83
2024/04/12 04:59:16;;;;;;;13.75;9.18;;;14.30;99.90;;;;;;5408196;26;19999;-82
2024/04/12 05:01:48;;;;;;;14.52;9.30;;;14.30;99.90;;;;;;5407956;26;20063;-81
2024/04/12 05:04:22;;;;;;;14.38;9.80;;;14.30;99.90;;;;;;5409050;26;20435;-82
2024/04/12 05:06:50;;;;;;;12.77;8.63;;;14.30;99.90;;;;;;5409019;26;20011;-82
2024/04/12 05:09:18;;;;;;;11.93;8.70;;;14.30;99.90;;;;;;5407432;26;20007;-82
2024/04/12 05:11:50;;;;;;;11.10;7.88;;;14.30;99.90;;;;;;5407758;26;20004;-82
2024/04/12 05:17:05;;;;;;;14.20;9.02;;;14.40;99.90;;;;;;5408737;26;20085;-83
2024/04/12 05:19:31;;;;;;;11.93;8.25;;;14.40;99.90;;;;;;5407469;26;19996;-83
2024/04/12 05:22:03;;;;;;;13.20;8.52;;;14.40;99.90;;;;;;5407761;26;20462;-82
2024/04/12 05:24:29;;;;;;;13.50;9.50;;;14.40;99.90;;;;;;5407690;26;20068;-82
2024/04/12 05:27:01;;;;;;;13.20;9.05;;;14.40;99.90;;;;;;5402740;26;20019;-82
2024/04/12 05:29:30;;;;;;;13.63;9.80;;;14.40;99.90;;;;;;5388545;26;20012;-82
2024/04/12 05:31:56;;;;;;;14.10;9.00;;;14.40;99.90;;;;;;5386893;26;20019;-80
2024/04/12 05:34:26;;;;;;;11.50;7.88;;;14.40;99.90;;;;;;5389253;26;20067;-83
2024/04/12 05:36:55;;;;;;;12.00;8.00;;;14.50;99.90;;;;;;5387468;26;20011;-81
2024/04/12 05:39:23;;;;;;;13.27;8.10;;;14.50;99.90;;;;;;5414250;26;20071;-82
2024/04/12 05:41:53;;;;;;;12.35;7.85;;;14.50;99.90;;;;;;5428742;26;20031;-82
2024/04/12 05:44:19;;;;;;;16.05;8.07;;;14.60;99.90;;;;;;5430117;26;20034;-82
2024/04/12 05:46:45;;;;;;;12.77;9.00;;;14.60;99.90;;;;;;5429674;26;20060;-81
2024/04/12 05:49:11;;;;;;;12.85;8.18;;;14.60;99.90;;;;;;5428826;26;20443;-82
2024/04/12 05:51:39;;;;;;;11.00;7.38;;;14.70;99.90;;;;;;5419177;26;19991;-81
2024/04/12 05:54:15;;;;;;;11.23;7.82;;;14.70;99.90;;;;;;5419499;26;19995;-81
2024/04/12 05:56:44;;;;;;;12.77;7.82;;;14.70;99.90;;;;;;5432470;26;19996;-82
2024/04/12 05:59:13;;;;;;;13.02;8.10;;;14.80;99.90;;;;;;5467858;26;19999;-82
2024/04/12 06:01:43;;;;;;;11.52;7.40;;;14.80;99.90;;;;;;5429366;26;19999;-82
2024/04/12 06:04:19;;;;;;;14.05;8.60;;;14.90;99.90;;;;;;5424963;26;19996;-82
2024/04/12 06:06:46;;;;;;;11.93;7.65;;;14.90;99.90;;;;;;5393519;26;20455;-82
2024/04/12 06:09:19;;;;;;;11.15;7.57;;;14.90;99.90;;;;;;5397024;26;20000;-81
2024/04/12 06:11:47;;;;;;;11.10;6.85;;;14.90;99.90;;;;;;5388317;26;20073;-82
2024/04/12 06:14:14;;;;;;;11.63;7.15;;;15.00;99.90;;;;;;5400635;26;20000;-83
2024/04/12 06:16:40;;;;;;;11.88;8.23;;;15.00;99.90;;;;;;5410132;26;19991;-82
2024/04/12 06:19:05;;;;;;;13.25;7.47;;;15.00;99.90;;;;;;5382273;26;20007;-82
2024/04/12 06:21:32;;;;;;;12.50;7.10;;;15.10;99.90;;;;;;5373472;26;20008;-82
2024/04/12 06:23:57;;;;;;;11.48;6.85;;;15.10;99.90;;;;;;5409880;26;19996;-81
2024/04/12 06:26:23;;;;;;;13.15;8.25;;;15.10;99.90;;;;;;5407080;26;20072;-82
2024/04/12 06:28:49;;;;;;;13.63;8.57;;;15.20;99.90;;;;;;5409482;26;19999;-83
2024/04/12 06:31:19;;;;;;;14.07;8.70;;;15.20;99.90;;;;;;5411138;26;20004;-83
2024/04/12 06:33:46;;;;;;;15.30;9.20;;;15.20;99.90;;;;;;5411773;26;19996;-83
2024/04/12 06:36:13;;;;;;;15.40;9.38;;;15.20;99.90;;;;;;5406664;26;20007;-82
2024/04/12 06:38:40;;;;;;;14.15;8.98;;;15.20;99.90;;;;;;5408682;26;19996;-82
2024/04/12 06:41:10;;;;;;;15.05;10.50;;;15.20;99.90;;;;;;5390617;26;19996;-82
2024/04/12 06:43:42;;;;;;;14.35;9.95;;;15.20;99.90;;;;;;5390585;26;20001;-80
2024/04/12 06:46:11;;;;;;;13.95;9.35;;;15.30;99.90;;;;;;5387666;26;20010;-80
2024/04/12 06:48:42;;;;;;;18.90;9.73;;;15.30;99.90;;;;;;5393179;26;20014;-81
2024/04/12 06:51:12;;;;;;;17.88;10.45;;;15.30;99.90;;;;;;5391403;26;20483;-81
2024/04/12 06:53:45;;;;;;;16.33;9.85;;;15.40;99.90;;;;;;5384069;26;20015;-81
2024/04/12 06:56:17;;;;;;;16.87;10.67;;;15.40;99.90;;;;;;5372300;26;19997;-83
2024/04/12 06:58:48;;;;;;;16.20;10.98;;;15.40;99.90;;;;;;5392119;26;20003;-82
2024/04/12 07:01:21;;;;;;;16.00;10.68;;;15.50;99.90;;;;;;5409375;26;20372;-83
2024/04/12 07:03:47;;;;;;;16.25;10.60;;;15.60;99.90;;;;;;5407835;26;20470;-83
2024/04/12 07:06:16;;;;;;;18.55;11.63;;;15.60;99.90;;;;;;5408783;26;20003;-84
2024/04/12 07:08:49;;;;;;;16.80;11.15;;;15.60;99.90;;;;;;5404479;26;20064;-82
2024/04/12 07:11:19;;;;;;;16.20;11.23;;;15.60;99.90;;;;;;5393138;26;20008;-82
2024/04/12 07:13:49;;;;;;;15.70;10.20;;;15.60;99.90;;;;;;5432701;26;20018;-83
2024/04/12 07:16:19;;;;;;;18.55;11.02;;;15.60;99.90;;;;;;5390007;26;19996;-83
2024/04/12 07:18:51;;;;;;;14.38;9.68;;;15.70;99.90;;;;;;5427190;26;20015;-82
2024/04/12 07:21:22;;;;;;;16.38;10.68;;;15.70;99.90;;;;;;5407084;26;20053;-82
2024/04/12 07:23:49;;;;;;;15.32;9.82;;;15.70;99.90;;;;;;5409907;26;20007;-83
2024/04/12 07:26:25;;;;;;;15.07;8.93;;;15.70;99.90;;;;;;5407158;26;20006;-82
2024/04/12 07:28:58;;;;;;;15.25;9.60;;;15.70;99.90;;;;;;5402879;26;20025;-82
2024/04/12 07:31:25;;;;;;;16.40;9.97;;;15.70;99.90;;;;;;5407919;26;20515;-82
2024/04/12 07:33:51;;;;;;;17.95;10.40;;;15.70;99.90;;;;;;5404567;26;20269;-82
2024/04/12 07:36:17;;;;;;;17.17;9.52;;;15.80;99.90;;;;;;5409354;26;20011;-82
2024/04/12 07:38:43;;;;;;;16.95;9.50;;;15.80;99.90;;;;;;5408706;26;20032;-82
2024/04/12 07:41:11;;;;;;;14.35;7.82;;;15.90;99.90;;;;;;5409467;26;20014;-82
2024/04/12 07:43:42;;;;;;;17.05;9.90;;;15.90;99.90;;;;;;5409109;26;20009;-82
2024/04/12 07:46:14;;;;;;;13.85;8.18;;;15.90;99.90;;;;;;5406637;26;19995;-81
2024/04/12 07:48:48;;;;;;;18.85;10.93;;;16.00;99.90;;;;;;5408885;26;20068;-85
2024/04/12 07:51:20;;;;;;;15.00;8.65;;;16.00;99.90;;;;;;5409700;26;20003;-82
2024/04/12 07:53:47;;;;;;;14.88;8.90;;;16.10;99.90;;;;;;5409023;26;20118;-81
2024/04/12 07:56:16;;;;;;;18.48;10.63;;;16.10;99.90;;;;;;5408731;26;20010;-82
2024/04/12 07:58:43;;;;;;;17.73;10.80;;;16.10;99.90;;;;;;5407195;26;20401;-82
2024/04/12 08:01:16;;;;;;;14.85;9.60;;;16.10;99.90;;;;;;5408452;26;20000;-84
2024/04/12 08:03:43;;;;;;;15.25;8.63;;;16.20;99.90;;;;;;5407910;26;20006;-83
2024/04/12 08:09:03;;;;;;;14.55;8.45;;;16.30;99.90;;;;;;5408549;26;20010;-83
2024/04/12 08:11:34;;;;;;;13.20;8.43;;;16.30;99.90;;;;;;5409074;26;20455;-84
2024/04/12 08:14:07;;;;;;;13.82;7.72;;;16.40;99.90;;;;;;5395885;26;20000;-81
2024/04/12 08:16:36;;;;;;;14.48;8.20;;;16.50;99.90;;;;;;5400682;26;20005;-82
2024/04/12 08:19:22;;;;;;;15.13;8.50;;;16.50;99.90;;;;;;5371264;26;20412;-82
2024/04/12 08:21:54;;;;;;;13.50;8.43;;;16.60;99.90;;;;;;5371058;26;20001;-82
2024/04/12 08:24:23;;;;;;;17.20;9.93;;;16.60;99.90;;;;;;5372939;26;20032;-81
2024/04/12 08:26:51;;;;;;;14.23;8.23;;;16.70;99.90;;;;;;5371070;26;20613;-81
2024/04/12 08:29:23;;;;;;;16.95;8.70;;;16.60;99.90;;;;;;5372747;26;20031;-83
2024/04/12 08:32:11;;;;;;;15.45;8.50;;;16.60;99.90;;;;;;5371079;26;20085;-82
2024/04/12 08:34:45;;;;;;;15.30;9.90;;;16.70;99.90;;;;;;5371399;26;20081;-82
2024/04/12 08:37:16;;;;;;;16.52;8.75;;;16.70;99.90;;;;;;5373244;26;20000;-82
2024/04/12 08:39:43;;;;;;;16.73;8.55;;;16.70;99.90;;;;;;5372218;26;20004;-81
2024/04/12 08:42:11;;;;;;;16.77;9.55;;;16.80;99.90;;;;;;5372521;26;19996;-82
2024/04/12 08:44:43;;;;;;;16.75;9.13;;;16.80;99.90;;;;;;5372795;26;20000;-83
2024/04/12 08:47:16;;;;;;;14.70;8.75;;;16.90;99.90;;;;;;5372538;26;20000;-82
2024/04/12 08:49:48;;;;;;;12.40;7.57;;;17.00;99.90;;;;;;5373147;26;20008;-83
2024/04/12 08:52:30;;;;;;;15.35;8.40;;;17.10;99.90;;;;;;5373249;26;20001;-82
2024/04/12 08:54:59;;;;;;;18.27;8.90;;;17.20;99.90;;;;;;5372639;26;20044;-84
2024/04/12 08:57:27;;;;;;;15.75;9.05;;;17.20;99.90;;;;;;5372417;26;20532;-83
2024/04/12 08:59:58;;;;;;;15.88;8.38;;;17.30;99.90;;;;;;5371136;26;20000;-83
2024/04/12 09:02:28;;;;;;;15.60;7.70;;;17.30;99.90;;;;;;5370667;26;20008;-82
2024/04/12 09:04:55;;;;;;;12.60;7.10;;;17.40;99.90;;;;;;5373428;26;20004;-83
2024/04/12 09:07:20;;;;;;;11.85;7.15;;;17.40;99.90;;;;;;5372620;26;19996;-83
2024/04/12 09:09:54;;;;;;;13.45;7.80;;;17.50;99.90;;;;;;5372907;26;20525;-84
2024/04/12 09:12:24;;;;;;;13.35;7.18;;;17.50;99.90;;;;;;5372720;26;20040;-83
2024/04/12 09:14:59;;;;;;;10.23;6.38;;;17.50;99.90;;;;;;5372305;26;20007;-83
2024/04/12 09:17:28;;;;;;;12.73;5.93;;;17.60;99.90;;;;;;5372712;26;20004;-84
2024/04/12 09:19:57;;;;;;;12.57;6.80;;;17.70;99.90;;;;;;5371554;26;20031;-81
2024/04/12 09:22:28;;;;;;;11.95;6.47;;;17.90;99.90;;;;;;5371844;26;20012;-82
2024/04/12 09:24:58;;;;;;;11.80;6.38;;;18.00;99.90;;;;;;5371973;26;20015;-84
2024/04/12 09:27:34;;;;;;;13.23;6.40;;;18.10;99.90;;;;;;5370428;26;19997;-83
2024/04/12 09:32:50;;;;;;;12.20;5.50;;;18.20;99.90;;;;;;5376415;26;20000;-84
2024/04/12 09:32:52;;;;;;;13.60;6.60;;;18.30;99.90;;;;;;5407085;26;20007;-83
2024/04/12 09:35:26;;;;;;;12.07;6.88;;;18.40;99.90;;;;;;5408059;26;20004;-84
2024/04/12 09:38:01;;;;;;;11.45;5.75;;;18.40;99.50;;;;;;5405389;26;20516;-83
2024/04/12 09:40:28;;;;;;;13.77;6.25;;;18.50;99.10;;;;;;5407092;26;20011;-81
2024/04/12 09:45:45;;;;;;;12.68;6.80;;;18.70;98.30;;;;;;5404113;26;20000;-84
2024/04/12 10:38:58;;;;;;;10.38;4.45;;;19.70;93.60;;;;;;5370737;26;19933;-81
2024/04/12 10:41:33;;;;;;;11.85;5.00;;;19.90;93.80;;;;;;5371482;26;20524;-80
2024/04/12 10:43:59;;;;;;;10.68;4.88;;;20.10;93.30;;;;;;5376673;26;20000;-78
2024/04/12 10:46:24;;;;;;;10.52;5.05;;;20.20;92.40;;;;;;5407332;26;20068;-78
2024/04/12 10:48:52;;;;;;;12.18;4.95;;;20.10;92.00;;;;;;5409426;26;20442;-80
2024/04/12 10:51:19;;;;;;;14.10;5.05;;;20.30;92.50;;;;;;5396668;26;20000;-83
2024/04/12 10:53:49;;;;;;;13.38;5.78;;;20.50;91.80;;;;;;5372119;26;20351;-81
2024/04/12 10:56:18;;;;;;;10.35;4.53;;;20.60;91.30;;;;;;5386679;26;20003;-80
2024/04/12 10:58:59;;;;;;;8.70;4.60;;;20.80;91.40;;;;;;5409604;26;20007;-85
2024/04/12 11:01:26;;;;;;;9.68;3.63;;;21.30;91.20;;;;;;5409552;26;20011;-81
2024/04/12 11:03:58;;;;;;;8.70;3.47;;;21.80;91.30;;;;;;5407768;26;20019;-83
2024/04/12 11:06:30;;;;;;;10.68;3.72;;;22.30;89.80;;;;;;5407232;26;20443;-84
2024/04/12 11:09:06;;;;;;;5.77;3.17;;;22.80;87.40;;;;;;5409269;26;19991;-82
2024/04/12 11:11:38;;;;;;;8.60;3.10;;;23.30;84.70;;;;;;5409186;26;20043;-84
2024/04/12 11:14:07;;;;;;;9.13;3.42;;;23.70;82.60;;;;;;5398150;26;20447;-82
2024/04/12 11:33:39;;;;;;;8.13;3.03;;;22.60;69.50;;;;;;5374395;26;20364;-81
2024/04/12 11:36:10;;;;;;;6.15;2.20;;;22.20;70.70;;;;;;5378908;26;20400;-83
2024/04/12 11:38:39;;;;;;;6.00;1.92;;;22.20;71.80;;;;;;5397816;26;20071;-81
2024/04/12 11:41:06;;;;;;;5.30;2.00;;;22.20;72.10;;;;;;5414727;26;20031;-82
2024/04/12 11:43:32;;;;;;;4.88;1.70;;;22.30;72.20;;;;;;5407075;26;20007;-82
2024/04/12 11:46:01;;;;;;;4.63;1.92;;;22.50;72.80;;;;;;5409655;26;19995;-82
2024/04/12 11:48:31;;;;;;;3.95;2.00;;;22.60;72.10;;;;;;5407683;26;20006;-82
2024/04/12 11:50:59;;;;;;;7.50;2.20;;;22.80;72.00;;;;;;5399879;26;20008;-82
2024/04/12 11:53:25;;;;;;;6.13;2.13;;;23.00;71.80;;;;;;5400403;26;20070;-82
2024/04/12 11:55:51;;;;;;;5.03;1.58;;;23.20;71.40;;;;;;5408958;26;20005;-84
2024/04/12 11:58:17;;;;;;;5.90;1.98;;;23.30;71.40;;;;;;5408812;26;19991;-83
2024/04/12 12:00:43;;;;;;;5.97;2.03;;;23.40;70.70;;;;;;5409944;26;20003;-82
2024/04/12 12:03:19;;;;;;;5.82;1.92;;;23.40;70.60;;;;;;5400664;26;20000;-83
2024/04/12 12:05:53;;;;;;;6.28;1.98;;;23.60;70.70;;;;;;5375061;26;20008;-82
2024/04/12 12:08:31;;;;;;;;;;;23.60;70.40;;;;;;5373297;26;20065;-80
2024/04/12 12:10:57;;;;;;;7.78;2.10;;;23.60;70.80;;;;;;5372979;26;20388;-83
2024/04/12 12:13:23;;;;;;;5.38;2.05;;;23.50;70.30;;;;;;5373691;26;19993;-83
2024/04/12 12:15:51;;;;;;;4.88;2.97;;;23.40;70.10;;;;;;5373476;26;19996;-83
2024/04/12 12:18:17;;;;;;;5.78;2.28;;;23.30;70.30;;;;;;5373544;26;20041;-81
2024/04/12 12:20:46;;;;;;;4.43;1.70;;;23.30;70.50;;;;;;5373330;26;19996;-81
2024/04/12 12:23:13;;;;;;;5.18;1.70;;;23.20;70.10;;;;;;5373539;26;20000;-81
2024/04/12 12:25:39;;;;;;;3.75;1.35;;;23.10;69.90;;;;;;5371331;26;20015;-82
2024/04/12 12:28:05;;;;;;;5.00;1.52;;;23.00;70.00;;;;;;5373123;26;20332;-80
2024/04/12 12:30:33;;;;;;;6.82;1.98;;;23.00;70.40;;;;;;5373646;26;20513;-81
2024/04/12 12:32:59;;;;;;;5.03;1.90;;;23.00;70.30;;;;;;5373543;26;20008;-86
2024/04/12 12:35:25;;;;;;;5.30;1.90;;;23.00;70.30;;;;;;5371676;26;20073;-84
2024/04/12 12:37:51;;;;;;;3.38;1.50;;;23.00;70.40;;;;;;5373081;26;20464;-81
2024/04/12 12:40:21;;;;;;;5.88;1.48;;;23.10;70.40;;;;;;5371264;26;20550;-83
2024/04/12 12:42:47;;;;;;;5.00;1.30;;;23.20;70.60;;;;;;5372336;26;20060;-80
2024/04/12 12:45:16;;;;;;;3.83;1.00;;;23.30;70.40;;;;;;5371473;26;20016;-83
2024/04/12 12:47:43;;;;;;;4.80;1.50;;;23.50;70.20;;;;;;5373315;26;19996;-83
2024/04/12 12:50:19;;;;;;;3.50;0.90;;;23.70;69.30;;;;;;5371016;26;20011;-81
2024/04/12 12:52:49;;;;;;;6.30;1.27;;;23.90;69.10;;;;;;5370946;26;20336;-82
2024/04/12 12:55:16;;;;;;;2.78;0.98;;;24.00;68.70;;;;;;5372816;26;20004;-80
2024/04/12 12:57:44;;;;;;;5.55;1.30;;;24.30;68.50;;;;;;5372733;26;20085;-81
2024/04/12 13:00:18;;;;;;;5.10;1.30;;;24.50;67.60;;;;;;5371986;26;19996;-83
2024/04/12 13:02:50;;;;;;;3.40;1.02;;;24.70;67.50;;;;;;5371239;26;20000;-82
2024/04/12 13:05:19;;;;;;;5.80;1.05;;;24.80;67.20;;;;;;5371745;26;20444;-80
2024/04/12 13:07:48;;;;;;;3.00;1.05;;;25.00;67.00;;;;;;5372666;26;20072;-82
2024/04/12 13:10:19;;;;;;;6.70;1.70;;;25.20;66.60;;;;;;5373384;26;20069;-83
2024/04/12 13:12:50;;;;;;;2.58;1.00;;;25.40;66.30;;;;;;5374104;26;20008;-83
2024/04/12 13:15:19;;;;;;;2.97;0.95;;;25.50;65.90;;;;;;5372992;26;20009;-83
2024/04/12 13:17:49;;;;;;;3.55;1.00;;;25.60;65.30;;;;;;5372876;26;20000;-81
2024/04/12 13:20:19;;;;;;;2.42;0.85;;;25.60;64.50;;;;;;5370534;26;20457;-82
2024/04/12 13:22:47;;;;;;;2.42;0.80;;;25.70;64.20;;;;;;5372678;26;20004;-83
2024/04/12 13:25:17;;;;;;;3.88;0.95;;;25.70;63.70;;;;;;5370823;26;20009;-81
2024/04/12 13:27:51;;;;;;;2.92;0.80;;;25.70;63.60;;;;;;5373528;26;19996;-81
2024/04/12 13:30:17;;;;;;;1.95;0.60;;;25.60;63.40;;;;;;5373638;26;20012;-81
2024/04/12 13:32:50;;;;;;;2.85;0.80;;;25.70;63.30;;;;;;5372755;26;20004;-80
2024/04/12 13:35:20;;;;;;;1.13;0.40;;;25.60;63.30;;;;;;5387321;26;20033;-81
2024/04/12 13:37:48;;;;;;;2.28;0.47;;;25.60;62.90;;;;;;5386595;26;20010;-81
2024/04/12 13:40:18;;;;;;;2.30;0.57;;;25.50;62.80;;;;;;5390846;26;20000;-83
2024/04/12 13:42:49;;;;;;;2.95;0.57;;;25.50;62.70;;;;;;5386743;26;20309;-83
2024/04/12 13:50:56;;;;;;;1.65;0.50;;;25.10;62.30;;;;;;5393580;26;20008;-83
2024/04/12 13:53:32;;;;;;;1.48;0.50;;;25.00;62.70;;;;;;5387323;26;20000;-83
2024/04/12 13:56:20;;;;;;;1.75;0.70;;;24.90;62.80;;;;;;5372730;26;20012;-80
2024/04/12 13:58:55;;;;;;;4.72;1.40;;;24.80;62.80;;;;;;5370110;26;20004;-82
2024/04/12 14:01:22;;;;;;;3.58;1.17;;;24.70;63.00;;;;;;5370137;26;20359;-83
2024/04/12 14:04:02;;;;;;;3.63;1.17;;;24.70;63.20;;;;;;5371344;26;20440;-80
2024/04/12 14:06:34;;;;;;;3.08;1.08;;;24.80;63.40;;;;;;5372404;26;20028;-83
2024/04/12 14:09:00;;;;;;;5.10;1.58;;;25.00;63.50;;;;;;5371880;26;20333;-82
2024/04/12 14:11:29;;;;;;;3.90;1.60;;;25.10;63.50;;;;;;5371299;26;20008;-84
2024/04/12 14:13:55;;;;;;;4.85;1.90;;;25.30;63.60;;;;;;5371516;26;19996;-82
2024/04/12 14:16:28;;;;;;;4.63;1.50;;;25.50;63.50;;;;;;5372398;26;20041;-81
2024/04/12 14:18:57;;;;;;;3.67;1.23;;;25.50;63.10;;;;;;5375122;26;20082;-80
2024/04/12 14:21:24;;;;;;;4.70;1.98;;;25.50;63.00;;;;;;5372864;26;19997;-83